createdAt,value
2018-04-18T00:01:58.248Z,2.30
2018-04-18T00:04:25.867Z,2.60
2018-04-18T00:06:53.356Z,2.70
2018-04-18T00:09:20.868Z,2.87
2018-04-18T00:11:48.370Z,3.43
2018-04-18T00:14:15.856Z,2.73
2018-04-18T00:16:43.356Z,2.87
2018-04-18T00:19:10.845Z,2.83
2018-04-18T00:21:38.333Z,2.43
2018-04-18T00:24:05.814Z,3.30
2018-04-18T00:26:33.330Z,2.83
2018-04-18T00:29:01.179Z,2.70
2018-04-18T00:31:28.683Z,2.80
2018-04-18T00:33:56.177Z,3.23
2018-04-18T00:36:23.709Z,3.23
2018-04-18T00:38:51.187Z,3.43
2018-04-18T00:41:18.712Z,3.33
2018-04-18T00:43:46.274Z,2.40
2018-04-18T00:46:13.784Z,2.73
2018-04-18T00:48:41.276Z,2.47
2018-04-18T00:51:08.755Z,2.50
2018-04-18T00:53:36.224Z,2.63
2018-04-18T00:56:03.717Z,2.83
2018-04-18T00:58:31.226Z,3.10
2018-04-18T01:00:58.719Z,2.90
2018-04-18T01:03:26.204Z,2.53
2018-04-18T01:05:53.732Z,2.57
2018-04-18T01:08:21.265Z,2.93
2018-04-18T01:10:48.752Z,2.93
2018-04-18T01:13:16.256Z,2.77
2018-04-18T01:15:43.795Z,2.47
2018-04-18T01:18:11.304Z,2.53
2018-04-18T01:20:38.824Z,2.47
2018-04-18T01:23:06.300Z,2.70
2018-04-18T01:25:33.771Z,2.37
2018-04-18T01:28:01.256Z,2.00
2018-04-18T01:30:29.739Z,2.20
2018-04-18T01:32:57.263Z,2.30
2018-04-18T01:35:24.740Z,2.10
2018-04-18T01:37:52.241Z,2.17
2018-04-18T01:40:20.115Z,2.53
2018-04-18T01:42:47.589Z,2.53
2018-04-18T01:45:15.136Z,3.17
2018-04-18T01:47:42.700Z,2.83
2018-04-18T01:50:10.174Z,2.80
2018-04-18T01:52:37.713Z,2.83
2018-04-18T01:55:05.243Z,2.73
2018-04-18T01:57:32.740Z,2.70
2018-04-18T02:00:00.233Z,2.77
2018-04-18T02:02:27.723Z,2.60
2018-04-18T02:04:55.189Z,2.37
2018-04-18T02:07:22.683Z,2.77
2018-04-18T02:09:50.234Z,2.27
2018-04-18T02:12:17.764Z,2.53
2018-04-18T02:14:45.251Z,2.70
2018-04-18T02:17:12.827Z,2.70
2018-04-18T02:19:40.313Z,2.73
2018-04-18T02:22:07.796Z,2.40
2018-04-18T02:24:35.280Z,2.70
2018-04-18T02:27:02.763Z,2.70
2018-04-18T02:29:30.288Z,3.13
2018-04-18T02:31:58.036Z,3.70
2018-04-18T02:34:25.544Z,3.57
2018-04-18T02:36:53.091Z,3.00
2018-04-18T02:39:20.569Z,3.37
2018-04-18T02:41:48.117Z,2.73
2018-04-18T02:44:15.640Z,3.20
2018-04-18T02:46:43.122Z,2.70
2018-04-18T02:49:10.684Z,3.50
2018-04-18T02:51:38.216Z,3.10
2018-04-18T02:54:05.756Z,3.83
2018-04-18T02:56:33.237Z,3.63
2018-04-18T02:59:00.720Z,3.67
2018-04-18T03:01:28.205Z,3.73
2018-04-18T03:03:55.756Z,3.07
2018-04-18T03:06:23.236Z,3.43
2018-04-18T03:08:50.749Z,3.60
2018-04-18T03:11:18.289Z,3.17
2018-04-18T03:13:45.895Z,3.40
2018-04-18T03:16:14.513Z,2.80
2018-04-18T03:18:42.018Z,3.37
2018-04-18T03:21:09.597Z,3.10
2018-04-18T03:23:37.186Z,3.40
2018-04-18T03:26:04.739Z,3.30
2018-04-18T03:28:32.252Z,3.60
2018-04-18T03:30:59.737Z,3.50
2018-04-18T03:33:27.280Z,5.43
2018-04-18T03:35:54.771Z,4.20
2018-04-18T03:38:22.264Z,6.20
2018-04-18T03:40:49.748Z,5.70
2018-04-18T03:43:17.218Z,5.13
2018-04-18T03:45:44.708Z,4.50
2018-04-18T03:48:12.806Z,4.40
2018-04-18T03:50:40.306Z,6.23
2018-04-18T03:53:07.797Z,6.47
2018-04-18T03:55:35.333Z,7.10
2018-04-18T03:58:02.837Z,7.70
2018-04-18T04:00:30.335Z,7.00
2018-04-18T04:02:57.835Z,7.23
2018-04-18T04:05:25.333Z,7.17
2018-04-18T04:07:52.817Z,7.40
2018-04-18T04:10:20.423Z,7.27
2018-04-18T04:12:47.924Z,6.93
2018-04-18T04:15:15.486Z,7.50
2018-04-18T04:17:48.728Z,7.60
2018-04-18T04:20:22.544Z,6.83
2018-04-18T04:22:55.911Z,5.90
2018-04-18T04:25:23.347Z,7.00
2018-04-18T04:27:50.896Z,5.43
2018-04-18T04:30:18.380Z,5.77
2018-04-18T04:32:45.885Z,5.80
2018-04-18T04:35:13.500Z,5.57
2018-04-18T04:37:41.069Z,4.50
2018-04-18T04:40:08.620Z,4.70
2018-04-18T04:42:36.135Z,4.33
2018-04-18T04:45:03.715Z,4.40
2018-04-18T04:47:31.170Z,3.60
2018-04-18T04:49:58.677Z,3.83
2018-04-18T04:52:26.200Z,3.63
2018-04-18T04:54:53.689Z,4.17
2018-04-18T04:57:21.169Z,3.53
2018-04-18T04:59:48.635Z,4.00
2018-04-18T05:02:16.116Z,3.43
2018-04-18T05:04:43.611Z,4.00
2018-04-18T05:07:11.158Z,4.07
2018-04-18T05:09:38.631Z,3.53
2018-04-18T05:12:06.115Z,3.90
2018-04-18T05:14:33.612Z,3.57
2018-04-18T05:17:01.101Z,3.33
2018-04-18T05:19:28.591Z,3.30
2018-04-18T05:21:56.056Z,3.93
2018-04-18T05:24:23.642Z,4.07
2018-04-18T05:26:51.152Z,4.20
2018-04-18T05:29:18.639Z,4.20
2018-04-18T05:31:46.133Z,4.57
2018-04-18T05:34:13.627Z,4.13
2018-04-18T05:36:41.224Z,5.10
2018-04-18T05:39:08.721Z,5.33
2018-04-18T05:41:36.216Z,5.63
2018-04-18T05:44:03.699Z,4.87
2018-04-18T05:46:31.192Z,4.87
2018-04-18T05:48:58.686Z,4.20
2018-04-18T05:51:26.180Z,4.00
2018-04-18T05:53:53.708Z,4.57
2018-04-18T05:56:21.303Z,4.93
2018-04-18T05:58:48.834Z,6.10
2018-04-18T06:01:16.314Z,5.37
2018-04-18T06:03:43.785Z,5.67
2018-04-18T06:06:11.340Z,6.23
2018-04-18T06:08:38.833Z,6.13
2018-04-18T06:11:06.336Z,6.87
2018-04-18T06:13:33.821Z,5.77
2018-04-18T06:16:01.308Z,5.90
2018-04-18T06:18:28.811Z,5.93
2018-04-18T06:20:56.323Z,5.97
2018-04-18T06:23:24.088Z,6.27
2018-04-18T06:25:51.577Z,5.60
2018-04-18T06:28:19.108Z,6.00
2018-04-18T06:30:46.603Z,5.77
2018-04-18T06:33:14.079Z,6.23
2018-04-18T06:35:41.568Z,5.23
2018-04-18T06:38:09.116Z,6.23
2018-04-18T06:40:36.659Z,6.20
2018-04-18T06:43:04.150Z,6.10
2018-04-18T06:45:31.627Z,6.83
2018-04-18T06:47:59.108Z,6.20
2018-04-18T06:50:26.604Z,7.63
2018-04-18T06:52:54.109Z,7.50
2018-04-18T06:55:21.587Z,7.60
2018-04-18T06:57:49.068Z,7.77
2018-04-18T07:00:16.698Z,7.40
2018-04-18T07:02:44.199Z,6.90
2018-04-18T07:05:11.680Z,6.70
2018-04-18T07:07:39.212Z,7.03
2018-04-18T07:10:06.699Z,6.73
2018-04-18T07:12:34.206Z,5.70
2018-04-18T07:15:01.685Z,6.07
2018-04-18T07:17:29.168Z,5.60
2018-04-18T07:19:56.670Z,6.57
2018-04-18T07:22:24.141Z,5.60
2018-04-18T07:24:51.628Z,5.73
2018-04-18T07:27:19.215Z,5.17
2018-04-18T07:29:46.761Z,6.13
2018-04-18T07:32:14.283Z,6.30
2018-04-18T07:34:41.824Z,5.90
2018-04-18T07:37:09.317Z,5.23
2018-04-18T07:39:36.874Z,5.17
2018-04-18T07:42:04.527Z,5.67
2018-04-18T07:44:32.032Z,5.77
2018-04-18T07:46:59.509Z,5.77
2018-04-18T07:49:26.993Z,6.27
2018-04-18T07:51:54.504Z,5.47
2018-04-18T07:54:21.998Z,6.30
2018-04-18T07:56:49.495Z,6.07
2018-04-18T07:59:16.984Z,5.80
2018-04-18T08:01:44.464Z,6.20
2018-04-18T08:04:12.100Z,5.77
2018-04-18T08:06:39.589Z,5.87
2018-04-18T08:09:07.079Z,5.93
2018-04-18T08:11:34.592Z,5.50
2018-04-18T08:14:02.124Z,5.40
2018-04-18T08:16:29.811Z,6.30
2018-04-18T08:18:57.305Z,6.10
2018-04-18T08:21:24.805Z,5.63
2018-04-18T08:23:52.392Z,5.33
2018-04-18T08:26:19.847Z,5.97
2018-04-18T08:28:47.419Z,5.80
2018-04-18T08:31:14.951Z,6.40
2018-04-18T08:33:42.440Z,5.30
2018-04-18T08:36:10.321Z,6.20
2018-04-18T08:38:37.844Z,5.63
2018-04-18T08:41:05.548Z,5.30
2018-04-18T08:43:33.031Z,5.60
2018-04-18T08:46:00.546Z,5.93
2018-04-18T08:48:28.052Z,5.37
2018-04-18T08:50:55.532Z,5.30
2018-04-18T08:53:23.080Z,6.47
2018-04-18T08:55:50.587Z,5.37
2018-04-18T08:58:18.068Z,5.57
2018-04-18T09:00:45.559Z,5.70
2018-04-18T09:03:13.045Z,5.13
2018-04-18T09:05:40.546Z,4.97
2018-04-18T09:08:08.102Z,5.13
2018-04-18T09:10:35.591Z,5.07
2018-04-18T09:13:03.101Z,4.73
2018-04-18T09:15:30.585Z,5.10
2018-04-18T09:17:58.076Z,4.77
2018-04-18T09:20:25.560Z,4.67
2018-04-18T09:22:53.042Z,4.53
2018-04-18T09:25:20.507Z,4.43
2018-04-18T09:27:47.995Z,3.23
2018-04-18T09:30:15.477Z,3.57
2018-04-18T09:32:43.227Z,3.93
2018-04-18T09:35:10.700Z,4.13
2018-04-18T09:37:38.235Z,3.23
2018-04-18T09:40:05.780Z,3.77
2018-04-18T09:42:33.470Z,4.17
2018-04-18T09:45:02.121Z,3.83
2018-04-18T09:47:29.634Z,5.30
2018-04-18T09:49:57.114Z,4.10
2018-04-18T09:52:24.600Z,3.90
2018-04-18T09:54:52.094Z,4.10
2018-04-18T09:57:19.573Z,3.70
2018-04-18T09:59:47.044Z,3.47
2018-04-18T10:02:18.431Z,3.40
2018-04-18T10:04:45.908Z,3.30
2018-04-18T10:07:13.403Z,3.10
2018-04-18T10:09:40.877Z,3.30
2018-04-18T10:12:08.420Z,3.13
2018-04-18T10:14:35.896Z,3.23
2018-04-18T10:17:03.396Z,3.23
2018-04-18T10:19:30.909Z,3.93
2018-04-18T10:21:58.404Z,3.27
2018-04-18T10:24:25.923Z,3.00
2018-04-18T10:26:53.424Z,2.77
2018-04-18T10:29:20.899Z,3.13
2018-04-18T10:31:48.371Z,2.63
2018-04-18T10:34:15.850Z,3.03
2018-04-18T10:36:43.430Z,3.20
2018-04-18T10:39:10.985Z,2.43
2018-04-18T10:41:38.474Z,2.57
2018-04-18T10:44:06.105Z,2.33
2018-04-18T10:46:33.588Z,2.90
2018-04-18T10:49:01.132Z,2.30
2018-04-18T10:51:28.696Z,2.37
2018-04-18T10:53:56.201Z,2.90
2018-04-18T10:56:23.683Z,2.93
2018-04-18T10:58:51.166Z,2.70
2018-04-18T11:01:18.639Z,2.50
2018-04-18T11:03:46.124Z,3.13
2018-04-18T11:06:13.609Z,2.40
2018-04-18T11:08:41.149Z,2.67
2018-04-18T11:11:08.655Z,2.80
2018-04-18T11:13:36.211Z,2.37
2018-04-18T11:16:03.735Z,2.43
2018-04-18T11:18:31.210Z,3.07
2018-04-18T11:20:58.692Z,3.03
2018-04-18T11:23:26.191Z,2.40
2018-04-18T11:25:53.672Z,2.97
2018-04-18T11:28:21.164Z,2.93
2018-04-18T11:30:48.693Z,2.70
2018-04-18T11:33:16.181Z,3.87
2018-04-18T11:35:43.671Z,2.90
2018-04-18T11:38:11.147Z,2.97
2018-04-18T11:40:38.635Z,3.60
2018-04-18T11:43:06.115Z,2.97
2018-04-18T11:45:33.656Z,2.53
2018-04-18T11:48:01.201Z,2.43
2018-04-18T11:50:28.738Z,3.03
2018-04-18T11:52:56.211Z,2.90
2018-04-18T11:55:23.693Z,3.13
2018-04-18T11:57:51.167Z,2.57
2018-04-18T12:00:18.644Z,2.53
2018-04-18T12:02:46.159Z,2.73
2018-04-18T12:05:13.631Z,2.50
2018-04-18T12:07:41.110Z,2.90
2018-04-18T12:10:08.624Z,3.00
2018-04-18T12:12:36.102Z,2.83
2018-04-18T12:15:03.624Z,2.50
2018-04-18T12:17:31.107Z,2.57
2018-04-18T12:19:58.735Z,3.30
2018-04-18T12:22:26.228Z,2.57
2018-04-18T12:24:53.708Z,2.83
2018-04-18T12:27:21.199Z,2.60
2018-04-18T12:29:48.683Z,2.53
2018-04-18T12:32:16.172Z,2.60
2018-04-18T12:34:43.675Z,2.23
2018-04-18T12:37:11.160Z,2.70
2018-04-18T12:39:38.659Z,2.70
2018-04-18T12:42:06.154Z,2.37
2018-04-18T12:44:33.665Z,2.87
2018-04-18T12:47:01.463Z,2.77
2018-04-18T12:49:28.947Z,2.43
2018-04-18T12:51:56.987Z,2.40
2018-04-18T12:54:24.459Z,2.47
2018-04-18T12:56:51.942Z,3.23
2018-04-18T12:59:19.479Z,2.60
2018-04-18T13:01:46.988Z,2.57
2018-04-18T13:04:14.496Z,2.60
2018-04-18T13:06:41.980Z,2.47
2018-04-18T13:09:09.460Z,2.50
2018-04-18T13:11:36.935Z,2.63
2018-04-18T13:14:04.444Z,2.93
2018-04-18T13:16:31.925Z,2.77
2018-04-18T13:18:59.419Z,2.70
2018-04-18T13:21:26.887Z,2.30
2018-04-18T13:23:54.424Z,2.60
2018-04-18T13:26:21.900Z,2.70
2018-04-18T13:28:49.401Z,3.83
2018-04-18T13:31:16.879Z,2.60
2018-04-18T13:33:44.367Z,2.60
2018-04-18T13:36:11.840Z,2.97
2018-04-18T13:38:39.327Z,2.47
2018-04-18T13:41:06.820Z,2.43
2018-04-18T13:43:34.298Z,2.40
2018-04-18T13:46:01.782Z,2.80
2018-04-18T13:48:29.668Z,2.87
2018-04-18T13:50:57.381Z,3.13
2018-04-18T13:53:24.870Z,2.50
2018-04-18T13:55:52.415Z,2.40
2018-04-18T13:58:19.910Z,2.67
2018-04-18T14:00:47.394Z,2.80
2018-04-18T14:03:14.871Z,2.73
2018-04-18T14:05:42.411Z,2.83
2018-04-18T14:08:10.110Z,2.77
2018-04-18T14:10:37.651Z,2.47
2018-04-18T14:13:05.128Z,2.80
2018-04-18T14:15:32.633Z,2.50
2018-04-18T14:18:00.120Z,2.60
2018-04-18T14:20:27.599Z,2.60
2018-04-18T14:22:55.087Z,2.77
2018-04-18T14:25:22.580Z,2.40
2018-04-18T14:27:50.200Z,2.60
2018-04-18T14:30:17.693Z,2.57
2018-04-18T14:32:45.188Z,2.63
2018-04-18T14:35:12.676Z,2.30
2018-04-18T14:37:40.191Z,2.60
2018-04-18T14:40:07.686Z,2.10
2018-04-18T14:42:35.232Z,1.97
2018-04-18T14:45:02.755Z,2.13
2018-04-18T14:47:30.239Z,2.40
2018-04-18T14:49:57.768Z,2.20
2018-04-18T14:52:25.247Z,2.30
2018-04-18T14:54:52.791Z,2.17
2018-04-18T14:57:20.271Z,2.27
2018-04-18T14:59:47.795Z,2.30
2018-04-18T15:02:15.275Z,1.93
2018-04-18T15:04:42.784Z,2.67
2018-04-18T15:07:10.263Z,1.97
2018-04-18T15:09:37.736Z,2.03
2018-04-18T15:12:05.281Z,2.00
2018-04-18T15:14:32.760Z,1.93
2018-04-18T15:17:00.248Z,2.27
2018-04-18T15:19:27.744Z,1.90
2018-04-18T15:21:55.213Z,1.90
2018-04-18T15:24:22.864Z,1.90
2018-04-18T15:26:50.346Z,2.10
2018-04-18T15:29:17.835Z,2.20
2018-04-18T15:31:45.958Z,2.20
2018-04-18T15:34:13.426Z,1.90
2018-04-18T15:36:40.906Z,2.03
2018-04-18T15:39:08.388Z,2.10
2018-04-18T15:41:35.875Z,1.90
2018-04-18T15:44:03.363Z,2.40
2018-04-18T15:46:30.996Z,2.50
2018-04-18T15:48:58.504Z,1.97
2018-04-18T15:51:26.052Z,2.13
2018-04-18T15:53:53.592Z,2.47
2018-04-18T15:56:21.080Z,2.40
2018-04-18T15:58:48.571Z,2.10
2018-04-18T16:01:16.100Z,2.10
2018-04-18T16:03:43.771Z,2.50
2018-04-18T16:06:11.416Z,2.17
2018-04-18T16:08:38.914Z,2.53
2018-04-18T16:11:06.400Z,1.90
2018-04-18T16:13:33.884Z,2.33
2018-04-18T16:16:01.355Z,2.13
2018-04-18T16:18:28.848Z,3.37
2018-04-18T16:20:56.323Z,2.30
2018-04-18T16:23:23.805Z,2.40
2018-04-18T16:25:51.284Z,2.57
2018-04-18T16:28:18.773Z,2.63
2018-04-18T16:30:46.261Z,2.43
2018-04-18T16:33:13.828Z,2.13
2018-04-18T16:35:41.800Z,2.43
2018-04-18T16:38:09.304Z,1.80
2018-04-18T16:40:36.946Z,1.90
2018-04-18T16:43:04.508Z,2.17
2018-04-18T16:45:32.039Z,1.80
2018-04-18T16:47:59.522Z,1.97
2018-04-18T16:50:27.002Z,1.97
2018-04-18T16:52:54.808Z,2.27
2018-04-18T16:55:22.298Z,1.97
2018-04-18T16:57:50.369Z,2.20
2018-04-18T17:00:18.188Z,2.90
2018-04-18T17:02:45.776Z,2.17
2018-04-18T17:05:13.362Z,1.57
2018-04-18T17:07:40.911Z,1.73
2018-04-18T17:10:08.417Z,1.83
2018-04-18T17:12:35.960Z,1.57
2018-04-18T17:15:03.504Z,2.00
2018-04-18T17:17:31.065Z,5.23
2018-04-18T17:19:58.595Z,13.77
2018-04-18T17:22:26.082Z,3.40
2018-04-18T17:24:53.588Z,4.40
2018-04-18T17:27:21.161Z,1.87
2018-04-18T17:29:48.639Z,2.27
2018-04-18T17:32:16.173Z,6.07
2018-04-18T17:34:43.672Z,3.00
2018-04-18T17:37:11.167Z,2.47
2018-04-18T17:39:38.692Z,1.80
2018-04-18T17:42:06.183Z,1.87
2018-04-18T17:44:33.742Z,1.57
2018-04-18T17:47:01.241Z,1.70
2018-04-18T17:49:28.724Z,1.90
2018-04-18T17:51:56.212Z,1.90
2018-04-18T17:54:23.861Z,2.10
2018-04-18T17:56:51.335Z,2.23
2018-04-18T17:59:18.817Z,1.80
2018-04-18T18:01:46.290Z,1.80
2018-04-18T18:04:13.779Z,2.30
2018-04-18T18:06:41.292Z,2.10
2018-04-18T18:09:08.771Z,2.43
2018-04-18T18:11:36.752Z,4.20
2018-04-18T18:14:04.232Z,2.37
2018-04-18T18:16:31.857Z,2.37
2018-04-18T18:18:59.668Z,2.30
2018-04-18T18:21:27.257Z,2.07
2018-04-18T18:23:54.777Z,2.30
2018-04-18T18:26:22.280Z,10.67
2018-04-18T18:28:49.760Z,3.93
2018-04-18T18:31:17.304Z,2.97
2018-04-18T18:33:44.848Z,3.33
2018-04-18T18:36:12.567Z,3.33
2018-04-18T18:38:40.106Z,3.50
2018-04-18T18:41:07.601Z,2.40
2018-04-18T18:43:35.199Z,3.07
2018-04-18T18:46:02.700Z,3.03
2018-04-18T18:48:30.172Z,4.00
2018-04-18T18:50:57.647Z,2.87
2018-04-18T18:53:25.128Z,2.73
2018-04-18T18:55:52.841Z,23.87
2018-04-18T18:58:20.323Z,5.20
2018-04-18T19:00:47.803Z,3.20
2018-04-18T19:03:15.279Z,3.27
2018-04-18T19:05:42.775Z,3.30
2018-04-18T19:08:10.310Z,4.17
2018-04-18T19:10:37.812Z,3.53
2018-04-18T19:13:05.323Z,3.37
2018-04-18T19:15:32.922Z,3.70
2018-04-18T19:18:00.404Z,4.00
2018-04-18T19:20:27.888Z,3.77
2018-04-18T19:22:55.370Z,4.17
2018-04-18T19:25:22.855Z,3.27
2018-04-18T19:27:50.371Z,4.33
2018-04-18T19:30:18.096Z,3.60
2018-04-18T19:32:46.137Z,4.27
2018-04-18T19:35:13.665Z,4.27
2018-04-18T19:37:41.222Z,4.53
2018-04-18T19:40:08.718Z,4.27
2018-04-18T19:42:36.200Z,4.40
2018-04-18T19:45:03.736Z,4.10
2018-04-18T19:47:31.701Z,4.60
2018-04-18T19:49:59.167Z,3.70
2018-04-18T19:52:26.675Z,4.70
2018-04-18T19:54:54.178Z,7.37
2018-04-18T19:57:21.723Z,5.10
2018-04-18T19:59:49.227Z,4.30
2018-04-18T20:02:16.714Z,4.13
2018-04-18T20:04:44.450Z,5.10
2018-04-18T20:07:12.019Z,4.83
2018-04-18T20:09:39.513Z,5.67
2018-04-18T20:12:06.984Z,5.47
2018-04-18T20:14:34.505Z,5.30
2018-04-18T20:17:02.007Z,6.07
2018-04-18T20:19:29.695Z,6.10
2018-04-18T20:21:57.180Z,5.27
2018-04-18T20:24:24.681Z,4.97
2018-04-18T20:26:52.169Z,5.40
2018-04-18T20:29:19.663Z,5.37
2018-04-18T20:31:47.152Z,4.70
2018-04-18T20:34:14.671Z,4.60
2018-04-18T20:36:43.935Z,4.80
2018-04-18T20:39:11.373Z,5.50
2018-04-18T20:41:38.860Z,5.13
2018-04-18T20:44:06.289Z,4.57
2018-04-18T20:46:33.779Z,4.97
2018-04-18T20:49:01.280Z,4.37
2018-04-18T20:51:28.854Z,4.40
2018-04-18T20:53:56.634Z,4.40
2018-04-18T20:56:24.116Z,3.80
2018-04-18T20:58:51.652Z,4.33
2018-04-18T21:01:19.163Z,4.00
2018-04-18T21:03:46.632Z,3.37
2018-04-18T21:06:14.111Z,4.27
2018-04-18T21:08:41.652Z,4.57
2018-04-18T21:11:09.129Z,5.00
2018-04-18T21:13:36.650Z,5.20
2018-04-18T21:16:04.135Z,4.87
2018-04-18T21:18:31.628Z,6.70
2018-04-18T21:20:59.111Z,7.67
2018-04-18T21:23:27.229Z,6.30
2018-04-18T21:25:54.660Z,6.77
2018-04-18T21:28:22.215Z,6.63
2018-04-18T21:30:49.708Z,5.87
2018-04-18T21:33:17.305Z,6.23
2018-04-18T21:35:44.761Z,7.63
2018-04-18T21:38:12.254Z,7.57
2018-04-18T21:40:39.787Z,6.80
2018-04-18T21:43:07.365Z,7.27
2018-04-18T21:45:34.926Z,6.70
2018-04-18T21:48:02.446Z,7.27
2018-04-18T21:50:29.878Z,6.57
2018-04-18T21:52:57.365Z,6.70
2018-04-18T21:55:25.359Z,6.60
2018-04-18T21:57:52.851Z,6.90
2018-04-18T22:00:20.409Z,6.77
2018-04-18T22:02:47.945Z,6.83
2018-04-18T22:05:15.430Z,6.53
2018-04-18T22:07:42.968Z,6.07
2018-04-18T22:10:10.516Z,5.77
2018-04-18T22:12:38.000Z,6.63
2018-04-18T22:15:05.501Z,5.80
2018-04-18T22:17:32.974Z,6.67
2018-04-18T22:20:00.465Z,5.83
2018-04-18T22:22:27.943Z,5.57
2018-04-18T22:24:55.423Z,6.77
2018-04-18T22:27:22.963Z,5.30
2018-04-18T22:29:50.411Z,4.70
2018-04-18T22:32:17.900Z,5.20
2018-04-18T22:34:45.335Z,4.33
2018-04-18T22:37:12.843Z,4.77
2018-04-18T22:39:40.330Z,3.70
2018-04-18T22:42:07.818Z,3.03
2018-04-18T22:44:35.309Z,2.77
2018-04-18T22:47:02.840Z,4.23
2018-04-18T22:49:30.340Z,2.90
2018-04-18T22:51:57.817Z,2.87
2018-04-18T22:54:25.296Z,3.63
2018-04-18T22:56:52.837Z,3.17
2018-04-18T22:59:20.397Z,3.00
2018-04-18T23:01:47.923Z,3.47
2018-04-18T23:04:15.407Z,3.20
2018-04-18T23:06:42.898Z,3.20
2018-04-18T23:09:10.379Z,3.10
2018-04-18T23:11:37.909Z,3.00
2018-04-18T23:14:05.400Z,3.00
2018-04-18T23:16:32.879Z,3.10
2018-04-18T23:19:00.672Z,2.60
2018-04-18T23:21:28.167Z,3.23
2018-04-18T23:23:55.652Z,2.83
2018-04-18T23:26:23.128Z,3.50
2018-04-18T23:28:50.651Z,3.23
2018-04-18T23:31:18.696Z,3.80
2018-04-18T23:33:46.185Z,3.47
2018-04-18T23:36:13.683Z,3.60
2018-04-18T23:38:41.185Z,3.00
2018-04-18T23:41:08.667Z,3.20
2018-04-18T23:43:36.142Z,3.80
2018-04-18T23:46:03.625Z,3.10
2018-04-18T23:48:31.104Z,3.13
2018-04-18T23:50:58.584Z,3.30
2018-04-18T23:53:26.084Z,3.40
2018-04-18T23:55:53.576Z,3.50
2018-04-18T23:58:21.408Z,3.00
